Time;durP1;ratioP1;P1;durP2;ratioP2;P2;SDS_P1;SDS_P2;PMS_P1;PMS_P2;Temp;Humidity;BMP_temperature;BMP_pressure;BME280_temperature;BME280_humidity;BME280_pressure;Samples;Min_cycle;Max_cycle;Signal;HPM_P1;HPM_P2
2021/04/15 00:02:08;;;;;;;24.50;14.15;;;0.50;22.60;;;;;;4999330;28;20050;-74
2021/04/15 00:04:35;;;;;;;24.73;14.32;;;0.60;23.60;;;;;;4995472;28;20074;-74
2021/04/15 00:07:03;;;;;;;27.08;15.77;;;0.70;24.50;;;;;;5000576;28;20134;-73
2021/04/15 00:09:30;;;;;;;23.17;14.82;;;0.60;23.30;;;;;;4998785;28;20049;-74
2021/04/15 00:11:57;;;;;;;23.10;14.85;;;0.50;23.60;;;;;;4997806;28;20050;-74
2021/04/15 00:14:24;;;;;;;26.33;14.93;;;0.50;24.40;;;;;;4997667;28;20054;-72
2021/04/15 00:16:51;;;;;;;21.80;14.45;;;0.50;24.20;;;;;;4997033;28;20050;-73
2021/04/15 00:19:19;;;;;;;25.50;15.10;;;0.50;24.40;;;;;;5001039;28;20530;-72
2021/04/15 00:21:48;;;;;;;26.23;14.93;;;0.40;24.10;;;;;;4999891;28;20057;-72
2021/04/15 00:24:16;;;;;;;24.27;15.45;;;0.50;24.40;;;;;;4998255;28;20053;-72
2021/04/15 00:26:43;;;;;;;24.33;15.65;;;0.50;24.60;;;;;;5000518;28;20165;-72
2021/04/15 00:29:10;;;;;;;24.50;15.05;;;0.50;24.60;;;;;;5001512;28;20132;-73
2021/04/15 00:31:37;;;;;;;23.73;15.02;;;0.40;25.00;;;;;;5003539;28;20054;-72
2021/04/15 00:34:04;;;;;;;25.23;15.57;;;0.40;25.40;;;;;;4996720;28;20069;-72
2021/04/15 00:36:31;;;;;;;22.77;14.63;;;0.50;25.90;;;;;;4997903;28;20069;-71
2021/04/15 00:38:59;;;;;;;21.92;14.65;;;0.60;25.40;;;;;;5001325;28;20056;-72
2021/04/15 00:41:26;;;;;;;20.58;14.23;;;0.40;25.00;;;;;;5003387;28;20058;-72
2021/04/15 00:43:54;;;;;;;24.05;14.93;;;0.30;25.20;;;;;;4998028;28;20065;-72
2021/04/15 00:46:45;;;;;;;20.48;14.18;;;0.20;25.60;;;;;;4997049;28;20587;-71
2021/04/15 00:49:15;;;;;;;20.58;14.43;;;0.20;26.70;;;;;;4998085;28;20042;-71
2021/04/15 00:51:46;;;;;;;24.77;15.63;;;0.30;26.80;;;;;;5002140;28;20049;-72
2021/04/15 00:54:27;;;;;;;21.75;15.13;;;0.20;26.70;;;;;;4995055;28;20435;-72
2021/04/15 00:56:54;;;;;;;22.35;14.85;;;0.30;27.00;;;;;;5000489;28;20042;-72
2021/04/15 00:59:21;;;;;;;22.65;15.30;;;0.30;27.20;;;;;;4996819;28;20057;-71
2021/04/15 01:01:48;;;;;;;22.45;16.40;;;0.20;27.00;;;;;;5000586;28;20056;-71
2021/04/15 01:04:16;;;;;;;20.85;14.18;;;0.30;27.50;;;;;;4995354;28;20090;-72
2021/04/15 01:06:43;;;;;;;23.83;15.40;;;0.30;27.10;;;;;;4997257;28;20472;-72
2021/04/15 01:09:10;;;;;;;22.25;15.18;;;0.20;26.70;;;;;;5004072;28;20651;-70
2021/04/15 01:11:56;;;;;;;24.88;16.23;;;0.20;26.80;;;;;;5001693;28;20112;-71
2021/04/15 01:14:34;;;;;;;22.80;16.20;;;0.20;28.00;;;;;;4997858;28;20107;-71
2021/04/15 01:17:06;;;;;;;24.75;15.23;;;0.20;28.00;;;;;;4994540;28;20054;-73
2021/04/15 01:19:52;;;;;;;23.48;15.20;;;0.10;28.00;;;;;;5000993;28;20054;-73
2021/04/15 01:22:40;;;;;;;23.80;16.05;;;-0.10;27.50;;;;;;4992518;28;20365;-73
2021/04/15 01:25:15;;;;;;;23.15;14.95;;;0.00;29.30;;;;;;4999648;28;20050;-72
2021/04/15 01:27:47;;;;;;;19.27;14.50;;;0.00;28.60;;;;;;4995888;28;20197;-72
2021/04/15 01:30:23;;;;;;;24.67;15.82;;;0.00;28.80;;;;;;4999873;28;20496;-73
2021/04/15 01:32:57;;;;;;;23.02;16.20;;;0.00;28.30;;;;;;4997939;28;20423;-73
2021/04/15 01:35:27;;;;;;;22.80;15.10;;;-0.10;28.90;;;;;;4997253;28;20052;-72
2021/04/15 01:38:02;;;;;;;20.23;14.77;;;0.00;27.10;;;;;;4996980;28;20613;-72
2021/04/15 01:40:34;;;;;;;18.88;13.63;;;-0.10;26.50;;;;;;5002333;28;20057;-73
2021/04/15 01:43:10;;;;;;;23.50;15.13;;;-0.10;27.10;;;;;;4994275;28;20053;-72
2021/04/15 01:45:38;;;;;;;21.15;14.10;;;-0.20;27.20;;;;;;4993712;28;20042;-72
2021/04/15 01:48:08;;;;;;;21.63;14.50;;;-0.20;26.40;;;;;;5001187;28;20103;-73
2021/04/15 01:50:39;;;;;;;16.92;12.45;;;-0.20;25.60;;;;;;4997020;28;20046;-72
2021/04/15 01:53:15;;;;;;;19.20;13.18;;;-0.20;24.60;;;;;;4999811;28;20050;-73
2021/04/15 01:55:45;;;;;;;18.65;12.43;;;-0.20;24.10;;;;;;4994176;28;20572;-73
2021/04/15 01:58:17;;;;;;;20.38;13.20;;;-0.20;24.10;;;;;;4997902;28;20052;-72
2021/04/15 02:00:49;;;;;;;19.75;12.68;;;-0.20;24.00;;;;;;4996470;28;20058;-72
2021/04/15 02:03:20;;;;;;;19.05;13.30;;;-0.30;23.90;;;;;;4996160;28;20054;-71
2021/04/15 02:05:54;;;;;;;21.67;13.93;;;-0.40;24.50;;;;;;5001644;28;20058;-73
2021/04/15 02:08:25;;;;;;;18.83;13.50;;;-0.40;25.50;;;;;;4998615;28;20524;-72
2021/04/15 02:11:02;;;;;;;22.95;14.45;;;-0.50;25.30;;;;;;4997495;28;20121;-74
2021/04/15 02:13:32;;;;;;;19.25;14.05;;;-0.50;26.80;;;;;;4992970;28;20053;-72
2021/04/15 02:16:05;;;;;;;22.33;14.00;;;-0.60;26.20;;;;;;4996962;28;20555;-73
2021/04/15 02:18:38;;;;;;;18.70;13.40;;;-0.50;26.30;;;;;;5002454;28;20613;-73
2021/04/15 02:21:11;;;;;;;20.67;14.60;;;-0.60;25.60;;;;;;4999638;28;20140;-73
2021/04/15 02:23:44;;;;;;;19.10;13.70;;;-0.50;26.20;;;;;;4990458;28;20054;-72
2021/04/15 02:26:14;;;;;;;22.30;15.50;;;-0.60;26.20;;;;;;4996371;28;20058;-72
2021/04/15 02:28:47;;;;;;;22.27;14.77;;;-0.70;26.20;;;;;;4997450;28;20500;-74
2021/04/15 02:31:20;;;;;;;21.63;14.85;;;-0.70;27.80;;;;;;4997360;28;20048;-73
2021/04/15 02:33:52;;;;;;;20.73;15.73;;;-0.80;27.90;;;;;;4989299;28;20054;-72
2021/04/15 02:36:21;;;;;;;20.58;14.35;;;-0.80;28.80;;;;;;4994882;28;20472;-71
2021/04/15 02:38:52;;;;;;;17.67;13.48;;;-0.70;29.40;;;;;;4997543;28;20054;-72
2021/04/15 02:41:23;;;;;;;20.17;14.23;;;-0.60;28.90;;;;;;5002588;28;20054;-72
2021/04/15 02:43:55;;;;;;;21.10;14.10;;;-0.70;28.20;;;;;;4995446;28;20760;-72
2021/04/15 02:46:29;;;;;;;20.52;15.32;;;-0.90;28.20;;;;;;4994791;28;20488;-72
2021/04/15 02:49:02;;;;;;;20.33;14.35;;;-0.70;29.40;;;;;;4994930;28;20045;-72
2021/04/15 02:51:32;;;;;;;23.17;15.02;;;-0.80;29.10;;;;;;4993482;28;20045;-70
2021/04/15 02:54:03;;;;;;;21.85;15.45;;;-0.70;29.40;;;;;;4996308;28;20056;-73
2021/04/15 02:56:34;;;;;;;24.85;15.18;;;-0.80;29.10;;;;;;4996368;28;20057;-73
2021/04/15 02:59:06;;;;;;;23.55;15.63;;;-0.80;29.60;;;;;;4998124;28;20539;-72
2021/04/15 03:01:43;;;;;;;21.05;14.80;;;-0.90;29.80;;;;;;4997907;28;20665;-73
2021/04/15 03:04:15;;;;;;;22.38;14.95;;;-0.80;30.00;;;;;;4992068;28;20506;-73
2021/04/15 03:06:44;;;;;;;21.10;14.57;;;-0.70;30.00;;;;;;4993647;28;20050;-73
2021/04/15 03:09:12;;;;;;;21.23;14.57;;;-0.90;29.30;;;;;;4996519;28;20049;-72
2021/04/15 03:11:42;;;;;;;21.58;15.13;;;-0.90;29.70;;;;;;4996557;28;20046;-72
2021/04/15 03:14:14;;;;;;;25.23;15.73;;;-0.90;30.00;;;;;;4989711;28;20346;-71
2021/04/15 03:16:46;;;;;;;23.38;15.13;;;-0.90;30.00;;;;;;4989549;28;20053;-71
2021/04/15 03:19:18;;;;;;;23.08;16.17;;;-0.90;30.00;;;;;;4996926;28;20050;-71
2021/04/15 03:21:56;;;;;;;25.75;16.30;;;-0.90;29.50;;;;;;5002835;28;20510;-73
2021/04/15 03:24:29;;;;;;;23.02;14.98;;;-0.90;29.30;;;;;;4996480;28;20138;-72
2021/04/15 03:27:03;;;;;;;24.27;15.13;;;-0.90;31.10;;;;;;5003889;28;20053;-72
2021/04/15 03:29:35;;;;;;;20.20;14.57;;;-0.80;29.40;;;;;;5001449;28;20308;-72
2021/04/15 03:32:13;;;;;;;20.85;14.73;;;-0.80;29.40;;;;;;5000033;28;20502;-72
2021/04/15 03:34:46;;;;;;;21.08;14.95;;;-0.90;28.80;;;;;;4997117;28;20049;-72
2021/04/15 03:37:19;;;;;;;18.73;13.30;;;-1.00;28.70;;;;;;4999014;28;20050;-73
2021/04/15 03:39:46;;;;;;;19.75;13.82;;;-1.00;29.60;;;;;;5002304;28;20055;-71
2021/04/15 03:42:22;;;;;;;20.20;13.65;;;-0.90;29.30;;;;;;5004018;28;20153;-72
2021/04/15 03:44:53;;;;;;;21.95;13.57;;;-0.90;28.30;;;;;;4997929;28;20550;-72
2021/04/15 03:47:25;;;;;;;18.27;13.90;;;-0.80;28.50;;;;;;5005485;28;20154;-72
2021/04/15 03:49:57;;;;;;;21.67;13.70;;;-0.80;27.50;;;;;;5005361;28;20069;-72
2021/04/15 03:52:27;;;;;;;16.98;12.90;;;-0.90;27.60;;;;;;4998567;28;20517;-73
2021/04/15 03:55:03;;;;;;;21.13;14.15;;;-0.90;27.70;;;;;;5001369;28;20051;-72
2021/04/15 03:57:31;;;;;;;18.30;12.98;;;-1.00;27.70;;;;;;5006793;28;20054;-72
2021/04/15 04:00:04;;;;;;;21.38;13.82;;;-1.00;28.30;;;;;;5008279;28;20053;-71
2021/04/15 04:02:36;;;;;;;19.23;13.73;;;-1.00;28.40;;;;;;5000388;28;20077;-73
2021/04/15 04:05:07;;;;;;;21.58;14.13;;;-1.00;28.40;;;;;;5002764;28;20496;-72
2021/04/15 04:07:40;;;;;;;20.13;14.70;;;-1.00;29.20;;;;;;4998641;28;20050;-73
2021/04/15 04:10:11;;;;;;;19.92;12.95;;;-1.00;29.10;;;;;;5006435;28;20497;-71
2021/04/15 04:12:43;;;;;;;18.23;13.45;;;-1.00;29.20;;;;;;4996565;28;20050;-72
2021/04/15 04:15:15;;;;;;;20.70;13.13;;;-1.10;29.20;;;;;;4993545;28;20129;-74
2021/04/15 04:17:46;;;;;;;20.33;13.73;;;-1.10;28.90;;;;;;4996296;28;20427;-73
2021/04/15 04:20:14;;;;;;;21.45;13.27;;;-1.10;28.70;;;;;;4998106;28;20085;-72
2021/04/15 04:22:53;;;;;;;23.17;12.57;;;-1.10;29.20;;;;;;4997510;28;20086;-73
2021/04/15 04:25:29;;;;;;;17.33;12.75;;;-1.10;28.70;;;;;;5000474;28;20412;-72
2021/04/15 04:28:01;;;;;;;22.35;14.35;;;-1.20;29.20;;;;;;4999356;28;20141;-72
2021/04/15 04:30:33;;;;;;;27.40;13.43;;;-1.10;29.20;;;;;;5000019;28;20042;-72
2021/04/15 04:33:05;;;;;;;21.27;13.70;;;-1.20;29.10;;;;;;4996598;28;20050;-71
2021/04/15 04:35:40;;;;;;;19.63;13.30;;;-1.20;29.50;;;;;;4998482;28;20701;-72
2021/04/15 04:38:12;;;;;;;20.73;13.60;;;-1.20;29.20;;;;;;5001076;28;20416;-73
2021/04/15 04:40:42;;;;;;;19.85;12.82;;;-1.20;29.10;;;;;;5002046;28;20137;-73
2021/04/15 04:43:12;;;;;;;20.73;12.95;;;-1.20;29.10;;;;;;5002036;28;20042;-73
2021/04/15 04:45:39;;;;;;;19.13;13.07;;;-1.20;29.10;;;;;;4999159;28;20046;-72
2021/04/15 04:48:13;;;;;;;21.05;13.32;;;-1.10;29.20;;;;;;5001457;28;20589;-72
2021/04/15 04:50:44;;;;;;;21.85;12.60;;;-1.10;29.20;;;;;;5000516;28;20056;-73
2021/04/15 04:53:14;;;;;;;18.55;12.40;;;-1.10;28.30;;;;;;4997770;28;20050;-73
2021/04/15 04:55:44;;;;;;;23.83;12.70;;;-0.90;28.00;;;;;;4995066;28;20050;-73
2021/04/15 04:58:13;;;;;;;17.42;12.25;;;-0.40;25.00;;;;;;4999614;28;20052;-71
2021/04/15 05:00:45;;;;;;;19.15;12.35;;;0.10;20.30;;;;;;5003268;28;20065;-72
2021/04/15 05:03:19;;;;;;;20.20;12.57;;;0.20;16.80;;;;;;4998610;28;20415;-72
2021/04/15 05:05:47;;;;;;;19.77;11.68;;;0.20;15.40;;;;;;4996708;28;20590;-72
2021/04/15 05:08:20;;;;;;;14.20;10.30;;;0.00;15.80;;;;;;5007958;28;20052;-72
2021/04/15 05:10:51;;;;;;;17.85;11.40;;;0.20;15.70;;;;;;4998282;28;20109;-72
2021/04/15 05:13:20;;;;;;;14.85;9.88;;;1.20;12.40;;;;;;4996908;28;20063;-73
2021/04/15 05:15:48;;;;;;;13.95;9.48;;;1.80;3.50;;;;;;4994354;28;20524;-73
2021/04/15 05:18:18;;;;;;;12.30;8.75;;;2.40;1.00;;;;;;5001406;28;20057;-72
2021/04/15 05:20:46;;;;;;;14.25;8.27;;;2.90;1.00;;;;;;5001528;28;20111;-72
2021/04/15 05:23:20;;;;;;;11.60;7.78;;;2.50;1.00;;;;;;5002632;28;20064;-73
2021/04/15 05:26:05;;;;;;;12.85;7.93;;;1.70;1.00;;;;;;5003400;28;20515;-72
2021/04/15 05:28:34;;;;;;;12.85;8.07;;;0.90;5.10;;;;;;4993171;28;20528;-73
2021/04/15 05:31:05;;;;;;;11.82;7.85;;;1.00;5.40;;;;;;5002566;28;20053;-70
2021/04/15 05:33:34;;;;;;;11.10;8.13;;;2.30;1.00;;;;;;5001318;28;20061;-74
2021/04/15 05:36:05;;;;;;;15.02;8.75;;;3.20;1.00;;;;;;5002055;28;20977;-72
2021/04/15 05:38:39;;;;;;;15.23;8.40;;;1.70;1.00;;;;;;4997986;28;20125;-73
2021/04/15 05:41:08;;;;;;;13.13;8.70;;;0.60;5.90;;;;;;5001203;28;20058;-72
2021/04/15 05:43:43;;;;;;;11.77;8.63;;;0.50;9.60;;;;;;4998490;28;20046;-74
2021/04/15 05:46:14;;;;;;;13.25;7.93;;;0.40;10.40;;;;;;4997394;28;20061;-73
2021/04/15 05:48:44;;;;;;;11.27;8.13;;;0.40;12.10;;;;;;4999600;28;20100;-72
2021/04/15 05:51:16;;;;;;;15.57;8.10;;;0.40;12.80;;;;;;5001762;28;20056;-73
2021/04/15 05:53:47;;;;;;;11.15;7.70;;;0.50;12.60;;;;;;4996253;28;20054;-72
2021/04/15 05:56:18;;;;;;;18.73;7.97;;;0.60;11.50;;;;;;5000852;28;20049;-72
2021/04/15 05:58:55;;;;;;;11.98;7.32;;;0.80;10.30;;;;;;5005712;28;20530;-73
2021/04/15 06:01:29;;;;;;;11.45;6.93;;;0.80;10.60;;;;;;5003895;28;20435;-73
2021/04/15 06:04:03;;;;;;;12.25;6.43;;;1.00;7.80;;;;;;4998563;28;20062;-73
2021/04/15 06:06:32;;;;;;;10.35;6.60;;;1.10;6.50;;;;;;5002528;28;20046;-73
2021/04/15 06:09:00;;;;;;;9.63;6.10;;;1.20;7.00;;;;;;5000647;28;20060;-73
2021/04/15 06:11:39;;;;;;;12.50;5.80;;;1.10;7.80;;;;;;5001296;28;20052;-71
2021/04/15 06:14:15;;;;;;;7.38;5.38;;;1.00;7.60;;;;;;4992178;28;20148;-72
2021/04/15 06:16:47;;;;;;;12.23;5.68;;;1.10;6.50;;;;;;4997571;28;20064;-73
2021/04/15 06:19:18;;;;;;;10.02;5.25;;;1.10;8.50;;;;;;4999619;28;20042;-73
2021/04/15 06:21:49;;;;;;;16.20;7.35;;;1.30;6.60;;;;;;4997231;28;20492;-72
2021/04/15 06:24:19;;;;;;;11.35;6.43;;;1.50;5.50;;;;;;4995588;28;20052;-73
2021/04/15 06:26:49;;;;;;;12.48;7.35;;;1.50;6.70;;;;;;4998343;28;20042;-73
2021/04/15 06:29:24;;;;;;;10.38;6.30;;;1.60;4.30;;;;;;4999598;28;20046;-74
2021/04/15 06:31:55;;;;;;;10.48;7.35;;;1.30;3.20;;;;;;4998855;28;20050;-74
2021/04/15 06:34:23;;;;;;;9.43;6.50;;;1.90;3.70;;;;;;4995747;28;20074;-72
2021/04/15 06:36:58;;;;;;;9.15;5.53;;;2.20;1.70;;;;;;4997854;28;20052;-74
2021/04/15 06:39:31;;;;;;;9.40;6.25;;;2.30;1.00;;;;;;4996451;28;20056;-73
2021/04/15 06:42:35;;;;;;;8.60;6.03;;;2.20;1.00;;;;;;5002988;28;20054;-72
2021/04/15 06:45:22;;;;;;;11.32;6.65;;;2.10;1.00;;;;;;4995020;28;20061;-72
2021/04/15 06:48:04;;;;;;;11.20;6.32;;;2.40;1.00;;;;;;5001956;28;20050;-73
2021/04/15 06:50:40;;;;;;;9.40;6.07;;;2.60;1.00;;;;;;4998336;28;20060;-73
2021/04/15 06:53:36;;;;;;;10.38;6.43;;;2.40;1.00;;;;;;4996175;28;20050;-72
2021/04/15 06:56:17;;;;;;;16.23;7.22;;;2.40;1.00;;;;;;4995518;28;20112;-73
2021/04/15 06:58:58;;;;;;;8.30;6.68;;;2.50;1.00;;;;;;4998186;28;20050;-73
2021/04/15 07:01:35;;;;;;;9.38;6.40;;;2.90;1.00;;;;;;4997015;28;20061;-73
2021/04/15 07:04:11;;;;;;;8.95;5.47;;;3.20;1.00;;;;;;4991548;28;20714;-73
2021/04/15 07:06:54;;;;;;;8.98;5.10;;;3.20;1.00;;;;;;4997452;28;20065;-72
2021/04/15 07:10:07;;;;;;;11.10;5.28;;;2.90;1.00;;;;;;4995370;28;20062;-73
2021/04/15 07:13:28;;;;;;;8.77;5.05;;;2.90;1.00;;;;;;5000045;28;20128;-73
2021/04/15 07:16:52;;;;;;;9.27;5.00;;;2.90;1.00;;;;;;4997842;28;20073;-73
2021/04/15 07:19:53;;;;;;;9.70;4.57;;;3.30;1.00;;;;;;5001489;28;20228;-73
2021/04/15 07:29:44;;;;;;;12.63;5.18;;;3.80;1.00;;;;;;5018203;28;20087;-73
2021/04/15 07:32:36;;;;;;;9.20;5.28;;;3.60;1.00;;;;;;5028655;28;20387;-74
2021/04/15 07:35:17;;;;;;;7.38;4.90;;;4.20;1.00;;;;;;5025057;28;20132;-75
2021/04/15 07:38:15;;;;;;;10.23;4.68;;;4.10;1.00;;;;;;5026609;28;20430;-73
2021/04/15 07:41:11;;;;;;;11.23;5.00;;;4.00;1.00;;;;;;5029470;28;20085;-74
2021/04/15 07:44:12;;;;;;;6.13;4.70;;;4.40;1.00;;;;;;5025032;28;20064;-73
2021/04/15 07:46:49;;;;;;;10.15;4.75;;;4.50;1.00;;;;;;5024860;28;20048;-73
2021/04/15 07:49:55;;;;;;;8.55;4.82;;;4.50;1.00;;;;;;5031230;28;20057;-74
2021/04/15 07:53:06;;;;;;;5.78;4.57;;;4.60;1.00;;;;;;5024672;28;20815;-73
2021/04/15 07:56:01;;;;;;;7.82;4.55;;;4.50;1.00;;;;;;5022521;28;20115;-74
2021/04/15 07:58:49;;;;;;;8.65;4.82;;;4.40;1.00;;;;;;5017718;28;20053;-73
2021/04/15 08:01:35;;;;;;;10.63;5.45;;;4.60;1.00;;;;;;5026644;28;20128;-74
2021/04/15 08:04:38;;;;;;;7.35;4.55;;;4.70;1.00;;;;;;5024431;28;20127;-75
2021/04/15 08:07:31;;;;;;;7.07;4.63;;;4.90;1.00;;;;;;5028130;28;20128;-73
2021/04/15 08:10:21;;;;;;;9.35;4.22;;;4.80;1.00;;;;;;5027542;28;20061;-72
2021/04/15 08:13:08;;;;;;;9.23;5.30;;;5.00;1.00;;;;;;5029181;28;20077;-73
2021/04/15 08:15:51;;;;;;;8.57;5.10;;;5.10;1.00;;;;;;5025096;28;20122;-74
2021/04/15 08:18:38;;;;;;;10.45;5.50;;;5.50;1.00;;;;;;5028532;28;20090;-74
2021/04/15 08:21:17;;;;;;;6.53;4.43;;;5.40;1.00;;;;;;5029232;28;20471;-74
2021/04/15 08:24:16;;;;;;;7.13;5.47;;;5.60;1.00;;;;;;5023926;28;20076;-74
2021/04/15 08:27:28;;;;;;;8.85;5.55;;;5.50;1.00;;;;;;5028059;28;20049;-73
2021/04/15 08:30:25;;;;;;;8.95;4.60;;;5.50;1.00;;;;;;5027166;28;20083;-74
2021/04/15 08:33:05;;;;;;;7.97;4.50;;;5.60;1.00;;;;;;5015688;28;20128;-71
2021/04/15 08:35:55;;;;;;;8.20;4.78;;;5.70;1.00;;;;;;5026412;28;20576;-74
2021/04/15 08:38:32;;;;;;;8.05;5.00;;;5.80;1.00;;;;;;5032929;28;20053;-73
2021/04/15 08:41:09;;;;;;;10.15;5.00;;;5.60;1.00;;;;;;5032323;28;20064;-72
2021/04/15 08:43:51;;;;;;;7.85;4.65;;;5.70;1.00;;;;;;5026976;28;20052;-74
2021/04/15 08:46:28;;;;;;;8.05;4.88;;;5.80;1.00;;;;;;5031364;28;20053;-73
2021/04/15 08:49:05;;;;;;;9.23;4.60;;;6.10;1.00;;;;;;5033228;28;20144;-74
2021/04/15 08:52:08;;;;;;;8.40;5.40;;;6.30;1.00;;;;;;5032115;28;20054;-73
2021/04/15 08:54:50;;;;;;;6.32;4.38;;;6.40;1.00;;;;;;5027576;28;20049;-74
2021/04/15 08:57:32;;;;;;;11.32;4.43;;;6.10;1.00;;;;;;5030498;28;20045;-73
2021/04/15 09:00:08;;;;;;;7.57;5.10;;;6.10;1.00;;;;;;5031529;28;20049;-74
2021/04/15 09:02:43;;;;;;;9.38;5.43;;;6.10;1.00;;;;;;5032799;28;20132;-74
2021/04/15 09:05:16;;;;;;;9.50;4.80;;;6.60;1.00;;;;;;5027138;28;20053;-73
2021/04/15 09:07:58;;;;;;;6.55;4.97;;;6.50;1.00;;;;;;5031082;28;20046;-72
2021/04/15 09:10:31;;;;;;;8.90;4.93;;;6.60;1.00;;;;;;5028409;28;20053;-72
2021/04/15 09:13:16;;;;;;;6.60;4.45;;;6.60;1.00;;;;;;5027773;28;20408;-74
2021/04/15 09:15:57;;;;;;;7.00;4.72;;;6.70;1.00;;;;;;5026467;28;20060;-74
2021/04/15 09:18:30;;;;;;;8.63;4.78;;;6.90;1.00;;;;;;5031938;28;20109;-73
2021/04/15 09:21:11;;;;;;;8.13;4.65;;;7.20;1.00;;;;;;5031134;28;20053;-74
2021/04/15 09:23:51;;;;;;;7.20;4.50;;;7.20;1.00;;;;;;5028579;28;20045;-73
2021/04/15 09:26:30;;;;;;;6.30;4.75;;;7.50;1.00;;;;;;5030399;28;20053;-73
2021/04/15 09:29:14;;;;;;;5.05;4.30;;;7.40;1.00;;;;;;5030027;28;20560;-74
2021/04/15 09:31:50;;;;;;;5.43;4.57;;;7.00;1.00;;;;;;5031354;28;20053;-73
2021/04/15 09:34:40;;;;;;;9.90;4.40;;;6.90;1.00;;;;;;5024256;28;20053;-72
2021/04/15 09:37:24;;;;;;;7.88;4.15;;;7.10;1.00;;;;;;5028693;28;20495;-74
2021/04/15 09:40:03;;;;;;;6.40;4.47;;;6.70;1.00;;;;;;5031729;28;20390;-73
2021/04/15 09:43:03;;;;;;;6.95;4.05;;;6.80;1.00;;;;;;5027227;28;20052;-77
2021/04/15 09:45:40;;;;;;;6.18;4.00;;;6.60;1.00;;;;;;5026707;28;20053;-73
2021/04/15 09:48:45;;;;;;;6.80;3.80;;;6.80;1.00;;;;;;5029997;28;20056;-75
2021/04/15 09:51:21;;;;;;;;;;;6.80;1.00;;;;;;5029982;28;20114;-74
2021/04/15 09:53:52;;;;;;;;;;;6.40;1.00;;;;;;5023361;28;20015;-74
2021/04/15 09:56:44;;;;;;;8.55;4.65;;;6.50;1.00;;;;;;5028256;28;20019;-74
2021/04/15 09:59:19;;;;;;;9.02;4.82;;;6.40;1.00;;;;;;5029747;28;20045;-74
2021/04/15 10:01:50;;;;;;;7.15;4.63;;;6.90;1.00;;;;;;5028613;28;20053;-74
2021/04/15 10:04:26;;;;;;;8.18;4.57;;;7.20;1.00;;;;;;5022355;28;20042;-74
2021/04/15 10:07:00;;;;;;;7.32;4.50;;;7.60;1.00;;;;;;5027033;28;20053;-74
2021/04/15 10:09:47;;;;;;;7.32;4.82;;;7.90;1.00;;;;;;5029962;28;20052;-73
2021/04/15 10:12:37;;;;;;;13.80;4.93;;;7.80;1.00;;;;;;5025408;28;20578;-74
2021/04/15 10:15:27;;;;;;;7.25;4.47;;;7.90;1.00;;;;;;5020532;28;21483;-73
2021/04/15 10:18:19;;;;;;;5.95;4.13;;;7.90;1.00;;;;;;5023331;28;20041;-74
2021/04/15 10:21:09;;;;;;;5.45;4.00;;;7.40;1.00;;;;;;5025508;28;20185;-73
2021/04/15 10:23:52;;;;;;;5.00;3.08;;;7.60;1.00;;;;;;5021847;28;20422;-73
2021/04/15 10:26:52;;;;;;;4.60;2.70;;;7.80;1.00;;;;;;5024592;28;20051;-72
2021/04/15 10:29:44;;;;;;;6.93;2.75;;;7.20;1.00;;;;;;5003553;28;20526;-74
2021/04/15 10:32:28;;;;;;;6.32;3.13;;;7.40;1.00;;;;;;5022981;28;20451;-72
2021/04/15 10:35:28;;;;;;;6.80;3.08;;;7.70;1.00;;;;;;5022437;28;20053;-73
2021/04/15 10:38:30;;;;;;;4.03;2.20;;;8.10;1.00;;;;;;5025577;28;20045;-73
2021/04/15 10:41:11;;;;;;;5.28;3.03;;;8.50;1.00;;;;;;5026250;28;20498;-75
2021/04/15 10:44:16;;;;;;;4.25;2.88;;;8.30;1.00;;;;;;5019955;28;20041;-71
2021/04/15 10:46:52;;;;;;;4.78;2.95;;;7.70;1.00;;;;;;5023867;28;20045;-73
2021/04/15 10:49:33;;;;;;;5.68;2.90;;;8.00;1.00;;;;;;5027897;28;20056;-74
2021/04/15 10:52:06;;;;;;;4.78;2.72;;;7.70;1.00;;;;;;5025933;28;20060;-74
2021/04/15 10:54:35;;;;;;;3.85;2.45;;;7.70;1.00;;;;;;5024976;28;20122;-74
2021/04/15 10:57:15;;;;;;;3.58;1.95;;;7.30;1.00;;;;;;5028696;28;20495;-74
2021/04/15 10:59:43;;;;;;;3.65;2.50;;;7.70;1.00;;;;;;5030054;28;20104;-74
2021/04/15 11:02:22;;;;;;;5.20;3.00;;;8.20;1.00;;;;;;5025999;28;20563;-72
2021/04/15 11:04:50;;;;;;;5.28;2.65;;;7.70;1.00;;;;;;5024465;28;20493;-74
2021/04/15 11:07:19;;;;;;;3.78;2.53;;;8.10;1.00;;;;;;5025090;28;20076;-73
2021/04/15 11:09:48;;;;;;;4.90;3.13;;;8.70;1.00;;;;;;5027940;28;20452;-72
2021/04/15 11:12:23;;;;;;;8.13;3.28;;;8.30;1.00;;;;;;5024252;28;20067;-72
2021/04/15 11:15:16;;;;;;;4.00;3.22;;;8.50;1.00;;;;;;5023210;28;20057;-72
2021/04/15 11:17:46;;;;;;;5.20;3.58;;;8.30;1.00;;;;;;5026214;28;20053;-72
2021/04/15 11:20:24;;;;;;;5.32;3.58;;;8.20;1.00;;;;;;5023237;28;20164;-72
2021/04/15 11:22:59;;;;;;;5.85;3.40;;;7.60;1.00;;;;;;5022361;28;20056;-72
2021/04/15 11:25:29;;;;;;;4.65;3.05;;;7.50;1.00;;;;;;5021652;28;20053;-72
2021/04/15 11:28:01;;;;;;;7.05;2.83;;;8.00;1.00;;;;;;5026528;28;20045;-73
2021/04/15 11:30:34;;;;;;;4.45;3.42;;;7.70;1.00;;;;;;5027121;28;20091;-71
2021/04/15 11:33:02;;;;;;;4.45;2.88;;;7.50;1.00;;;;;;5023179;28;20503;-72
2021/04/15 11:35:29;;;;;;;4.22;3.03;;;7.50;1.00;;;;;;5021882;28;20061;-73
2021/04/15 11:38:13;;;;;;;4.38;3.08;;;7.90;1.00;;;;;;5026638;28;20374;-73
2021/04/15 11:40:43;;;;;;;5.07;3.67;;;7.90;1.00;;;;;;5030236;28;20421;-73
2021/04/15 11:43:25;;;;;;;6.25;3.90;;;7.90;1.00;;;;;;5028813;28;20052;-73
2021/04/15 11:45:55;;;;;;;5.53;4.47;;;8.10;1.00;;;;;;5025431;28;20049;-74
2021/04/15 11:48:25;;;;;;;6.93;4.03;;;8.00;1.00;;;;;;5030124;28;20853;-71
2021/04/15 11:51:11;;;;;;;7.05;3.15;;;8.10;1.00;;;;;;5029880;28;20059;-73
2021/04/15 11:53:45;;;;;;;7.88;4.18;;;7.90;1.00;;;;;;5023751;28;20510;-71
2021/04/15 11:56:32;;;;;;;3.90;3.05;;;7.80;1.00;;;;;;5025017;28;20076;-72
2021/04/15 11:59:24;;;;;;;4.72;2.90;;;8.20;1.00;;;;;;5029621;28;20111;-73
2021/04/15 12:01:52;;;;;;;4.05;2.80;;;8.70;1.00;;;;;;5029425;28;20060;-73
2021/04/15 12:04:25;;;;;;;5.10;3.40;;;8.60;1.00;;;;;;5025264;28;20052;-74
2021/04/15 12:06:56;;;;;;;4.75;3.25;;;8.50;1.00;;;;;;5027346;28;20052;-72
2021/04/15 12:09:35;;;;;;;5.28;3.20;;;8.10;1.00;;;;;;5031275;28;20243;-71
2021/04/15 12:12:12;;;;;;;4.15;3.30;;;8.90;1.00;;;;;;5028995;28;20144;-72
2021/04/15 12:14:41;;;;;;;4.95;3.35;;;8.70;1.00;;;;;;5023963;28;20045;-73
2021/04/15 12:17:17;;;;;;;5.00;3.10;;;9.10;1.00;;;;;;5028622;28;20053;-74
2021/04/15 12:19:53;;;;;;;6.65;3.50;;;9.20;1.00;;;;;;5030434;28;20060;-73
2021/04/15 12:22:24;;;;;;;5.63;3.63;;;9.50;1.00;;;;;;5026170;28;20053;-74
2021/04/15 12:24:56;;;;;;;3.92;3.20;;;9.30;1.00;;;;;;5023459;28;20056;-73
2021/04/15 12:27:26;;;;;;;9.48;3.28;;;9.50;1.00;;;;;;5028690;28;20049;-73
2021/04/15 12:30:01;;;;;;;6.13;3.58;;;9.60;1.00;;;;;;5030793;28;20049;-73
2021/04/15 12:32:38;;;;;;;6.03;3.05;;;9.70;1.00;;;;;;5025786;28;20054;-73
2021/04/15 12:35:22;;;;;;;3.80;3.03;;;9.90;1.00;;;;;;5025644;28;20091;-73
2021/04/15 12:37:54;;;;;;;5.45;2.88;;;9.90;1.00;;;;;;5028118;28;20049;-72
2021/04/15 12:40:29;;;;;;;3.67;2.65;;;10.00;1.00;;;;;;5028058;28;20177;-74
2021/04/15 12:43:00;;;;;;;4.72;3.00;;;9.70;1.00;;;;;;5025935;28;20128;-73
2021/04/15 12:45:32;;;;;;;4.53;2.97;;;9.30;1.00;;;;;;5025854;28;20045;-72
2021/04/15 12:48:02;;;;;;;9.05;3.38;;;8.90;1.00;;;;;;5028435;28;20041;-73
2021/04/15 12:50:30;;;;;;;5.55;3.33;;;8.30;1.00;;;;;;5026993;28;20052;-73
2021/04/15 12:52:59;;;;;;;4.78;3.90;;;8.40;1.00;;;;;;5025031;28;20049;-73
2021/04/15 12:55:28;;;;;;;6.07;3.88;;;8.10;1.00;;;;;;5025014;28;20053;-72
2021/04/15 12:57:57;;;;;;;11.10;4.25;;;7.40;1.00;;;;;;5023481;28;20414;-71
2021/04/15 13:00:34;;;;;;;5.95;3.97;;;7.20;1.00;;;;;;5029947;28;20138;-72
2021/04/15 13:03:10;;;;;;;4.25;3.65;;;6.90;1.00;;;;;;5026301;28;20057;-74
2021/04/15 13:06:00;;;;;;;5.05;4.05;;;6.40;1.00;;;;;;5024655;28;20041;-71
2021/04/15 13:08:36;;;;;;;5.15;3.80;;;6.20;1.00;;;;;;5023975;28;20121;-71
2021/04/15 13:11:07;;;;;;;4.82;3.45;;;6.10;1.00;;;;;;5027547;28;20518;-72
2021/04/15 13:13:41;;;;;;;3.85;2.80;;;6.30;1.00;;;;;;5022926;28;20059;-72
2021/04/15 13:16:42;;;;;;;5.05;3.25;;;6.50;1.00;;;;;;5027323;28;20148;-72
2021/04/15 13:19:39;;;;;;;4.75;3.10;;;6.80;1.00;;;;;;5024619;28;20114;-72
2021/04/15 13:22:12;;;;;;;6.70;3.67;;;7.00;1.00;;;;;;5025674;28;20046;-73
2021/04/15 13:24:59;;;;;;;5.47;3.70;;;7.30;1.00;;;;;;5024412;28;20460;-72
2021/04/15 13:27:40;;;;;;;4.30;2.90;;;7.30;1.00;;;;;;5014864;28;20042;-72
2021/04/15 13:30:14;;;;;;;4.55;3.10;;;7.60;1.00;;;;;;5028847;28;20140;-72
2021/04/15 13:33:10;;;;;;;4.53;2.90;;;7.70;1.00;;;;;;5024654;28;20132;-72
2021/04/15 13:35:45;;;;;;;3.78;3.20;;;7.80;1.00;;;;;;5023569;28;20094;-72
2021/04/15 13:38:58;;;;;;;5.38;2.72;;;7.90;1.00;;;;;;5026823;28;20050;-72
2021/04/15 13:41:56;;;;;;;5.22;3.00;;;8.00;1.00;;;;;;5026403;28;20073;-72
2021/04/15 13:45:04;;;;;;;5.47;3.10;;;8.10;1.00;;;;;;5024571;28;20057;-71
2021/04/15 13:47:56;;;;;;;4.57;2.75;;;8.40;1.00;;;;;;5026794;28;20507;-74
2021/04/15 13:51:16;;;;;;;5.32;3.28;;;8.50;1.00;;;;;;5016131;28;20045;-74